createdAt,value
2023-05-10T00:00:00.526Z,13.6021
2023-05-10T00:01:01.531Z,13.5294
2023-05-10T00:02:02.572Z,13.5527
2023-05-10T00:03:03.655Z,13.4286
2023-05-10T00:04:04.666Z,13.2735
2023-05-10T00:05:05.612Z,13.2582
2023-05-10T00:06:06.642Z,13.3068
2023-05-10T00:07:07.692Z,13.5599
2023-05-10T00:08:08.735Z,13.5595
2023-05-10T00:09:09.781Z,13.4241
2023-05-10T00:10:10.757Z,13.3016
2023-05-10T00:11:11.811Z,13.3343
2023-05-10T00:12:12.794Z,13.4556
2023-05-10T00:13:13.960Z,13.5527
2023-05-10T00:14:14.928Z,13.4122
2023-05-10T00:15:15.943Z,13.4169
2023-05-10T00:16:17.028Z,13.2582
2023-05-10T00:17:18.016Z,13.2420
2023-05-10T00:18:19.028Z,13.4574
2023-05-10T00:19:20.089Z,13.3996
2023-05-10T00:20:21.051Z,13.2707
2023-05-10T00:21:22.090Z,13.2601
2023-05-10T00:22:23.126Z,13.2590
2023-05-10T00:23:24.195Z,13.2897
2023-05-10T00:24:25.234Z,13.5562
2023-05-10T00:25:26.213Z,13.7836
2023-05-10T00:26:27.233Z,13.8023
2023-05-10T00:27:28.275Z,13.8056
2023-05-10T00:28:29.342Z,13.8181
2023-05-10T00:29:30.408Z,13.7424
2023-05-10T00:30:31.378Z,13.6834
2023-05-10T00:31:32.421Z,13.8004
2023-05-10T00:32:33.453Z,13.7876
2023-05-10T00:33:34.486Z,13.6791
2023-05-10T00:34:35.502Z,13.7733
2023-05-10T00:35:36.529Z,13.7783
2023-05-10T00:36:37.534Z,13.7398
2023-05-10T00:37:38.580Z,13.7153
2023-05-10T00:38:39.648Z,13.4315
2023-05-10T00:39:40.702Z,13.3077
2023-05-10T00:40:41.718Z,13.3429
2023-05-10T00:41:42.737Z,13.3467
2023-05-10T00:42:43.719Z,13.3355
2023-05-10T00:43:44.750Z,13.4021
2023-05-10T00:44:45.815Z,13.6750
2023-05-10T00:45:46.885Z,13.7738
2023-05-10T00:46:47.862Z,13.6451
2023-05-10T00:47:48.911Z,13.6058
2023-05-10T00:48:49.929Z,13.7543
2023-05-10T00:49:50.931Z,13.8224
2023-05-10T00:50:51.987Z,13.8331
2023-05-10T00:51:53.012Z,13.8438
2023-05-10T00:52:54.025Z,13.9197
2023-05-10T00:53:55.033Z,14.0346
2023-05-10T00:54:56.092Z,14.0920
2023-05-10T00:55:57.139Z,14.0081
2023-05-10T00:56:58.213Z,14.0049
2023-05-10T00:57:59.153Z,13.9172
2023-05-10T00:59:00.214Z,13.7150
2023-05-10T01:00:01.235Z,13.7122
2023-05-10T01:01:02.349Z,13.8059
2023-05-10T01:02:03.364Z,13.6963
2023-05-10T01:03:04.394Z,13.8221
2023-05-10T01:04:05.356Z,13.9222
2023-05-10T01:05:06.476Z,14.0326
2023-05-10T01:06:07.454Z,13.9724
2023-05-10T01:07:08.497Z,13.9077
2023-05-10T01:08:09.478Z,13.8636
2023-05-10T01:09:10.518Z,13.6595
2023-05-10T01:10:11.543Z,13.4905
2023-05-10T01:11:12.596Z,13.4813
2023-05-10T01:12:13.688Z,13.6553
2023-05-10T01:13:14.739Z,13.7581
2023-05-10T01:14:15.697Z,13.8889
2023-05-10T01:15:16.712Z,14.0080
2023-05-10T01:16:17.829Z,14.3733
2023-05-10T01:17:18.822Z,14.4385
2023-05-10T01:18:19.781Z,14.3633
2023-05-10T01:19:20.893Z,14.3023
2023-05-10T01:20:21.917Z,14.2400
2023-05-10T01:21:23.026Z,14.1707
2023-05-10T01:22:24.017Z,14.1302
2023-05-10T01:23:25.019Z,14.0923
2023-05-10T01:24:26.062Z,14.1131
2023-05-10T01:25:27.036Z,14.0307
2023-05-10T01:26:28.115Z,14.0374
2023-05-10T01:27:29.136Z,14.0646
2023-05-10T01:28:30.200Z,13.9668
2023-05-10T01:29:31.197Z,14.0686
2023-05-10T01:30:32.250Z,14.0686
2023-05-10T01:31:33.312Z,14.0936
2023-05-10T01:32:34.344Z,14.1588
2023-05-10T01:33:35.297Z,14.2173
2023-05-10T01:34:36.337Z,14.2149
2023-05-10T01:35:37.358Z,14.1465
2023-05-10T01:36:38.465Z,14.0921
2023-05-10T01:37:39.460Z,14.0755
2023-05-10T01:38:40.477Z,14.0548
2023-05-10T01:39:41.476Z,14.1858
2023-05-10T01:40:42.515Z,14.2278
2023-05-10T01:41:43.533Z,14.1532
2023-05-10T01:42:44.622Z,14.2430
2023-05-10T01:43:45.594Z,14.2062
2023-05-10T01:44:46.739Z,14.0217
2023-05-10T01:45:47.736Z,14.0179
2023-05-10T01:46:48.845Z,13.9219
2023-05-10T01:47:49.868Z,13.9874
2023-05-10T01:48:50.852Z,14.1135
2023-05-10T01:49:51.868Z,14.1784
2023-05-10T01:50:52.893Z,14.1051
2023-05-10T01:51:53.968Z,13.8256
2023-05-10T01:52:55.012Z,13.7702
2023-05-10T01:53:55.993Z,13.7866
2023-05-10T01:54:57.010Z,13.7324
2023-05-10T01:55:58.032Z,13.5965
2023-05-10T01:56:59.130Z,13.6652
2023-05-10T01:58:00.178Z,13.6282
2023-05-10T01:59:01.182Z,13.7446
2023-05-10T02:00:02.163Z,13.6759
2023-05-10T02:01:03.211Z,13.7900
2023-05-10T02:02:04.292Z,13.9509
2023-05-10T02:03:05.359Z,13.9207
2023-05-10T02:04:06.425Z,13.7666
2023-05-10T02:05:07.291Z,13.5624
2023-05-10T02:06:08.337Z,13.4054
2023-05-10T02:07:09.405Z,13.4396
2023-05-10T02:08:10.500Z,13.6444
2023-05-10T02:09:11.470Z,13.7682
2023-05-10T02:10:12.475Z,13.7103
2023-05-10T02:11:13.496Z,13.7662
2023-05-10T02:12:14.571Z,13.6865
2023-05-10T02:13:15.596Z,13.8726
2023-05-10T02:14:16.670Z,13.9869
2023-05-10T02:15:17.612Z,13.9903
2023-05-10T02:16:18.665Z,13.8187
2023-05-10T02:17:19.737Z,13.9080
2023-05-10T02:18:20.785Z,13.9756
2023-05-10T02:19:21.774Z,14.0294
2023-05-10T02:20:22.760Z,14.0478
2023-05-10T02:21:23.771Z,13.8568
2023-05-10T02:22:24.828Z,13.8635
2023-05-10T02:23:25.900Z,13.9548
2023-05-10T02:24:26.908Z,14.0335
2023-05-10T02:25:27.896Z,14.0207
2023-05-10T02:26:29.028Z,13.9979
2023-05-10T02:27:30.032Z,14.0127
2023-05-10T02:28:31.035Z,13.9911
2023-05-10T02:29:32.053Z,14.1435
2023-05-10T02:30:33.034Z,14.1707
2023-05-10T02:31:34.115Z,14.1128
2023-05-10T02:32:35.199Z,13.8019
2023-05-10T02:33:36.175Z,13.8350
2023-05-10T02:34:37.192Z,13.6879
2023-05-10T02:35:38.186Z,13.3686
2023-05-10T02:36:39.205Z,13.2986
2023-05-10T02:37:40.234Z,13.3663
2023-05-10T02:38:41.334Z,13.5027
2023-05-10T02:39:42.340Z,13.6330
2023-05-10T02:40:43.322Z,13.7450
2023-05-10T02:41:44.329Z,13.8376
2023-05-10T02:42:45.371Z,13.8812
2023-05-10T02:43:46.477Z,13.7180
2023-05-10T02:44:47.472Z,13.6314
2023-05-10T02:45:48.478Z,13.5158
2023-05-10T02:46:49.473Z,13.5106
2023-05-10T02:47:50.581Z,13.4919
2023-05-10T02:48:51.610Z,13.4812
2023-05-10T02:49:52.617Z,13.6329
2023-05-10T02:50:53.622Z,13.7263
2023-05-10T02:51:54.637Z,13.7059
2023-05-10T02:52:55.655Z,13.7445
2023-05-10T02:53:56.774Z,13.9095
2023-05-10T02:54:57.777Z,13.9562
2023-05-10T02:55:58.774Z,14.0043
2023-05-10T02:56:59.836Z,14.1224
2023-05-10T02:58:00.936Z,14.1631
2023-05-10T02:59:01.931Z,14.1628
2023-05-10T03:00:03.022Z,14.1873
2023-05-10T03:01:03.978Z,14.2431
2023-05-10T03:02:04.953Z,14.2557
2023-05-10T03:03:06.020Z,14.2124
2023-05-10T03:04:07.189Z,14.0690
2023-05-10T03:05:08.172Z,14.1522
2023-05-10T03:06:09.112Z,14.0924
2023-05-10T03:07:10.333Z,14.1273
2023-05-10T03:08:11.214Z,13.9409
2023-05-10T03:09:12.256Z,13.6831
2023-05-10T03:10:13.283Z,13.5756
2023-05-10T03:11:14.266Z,13.6705
2023-05-10T03:12:15.317Z,13.6346
2023-05-10T03:13:16.349Z,13.5523
2023-05-10T03:14:17.412Z,13.6659
2023-05-10T03:15:18.456Z,13.7061
2023-05-10T03:16:19.517Z,13.7063
2023-05-10T03:17:20.471Z,13.7661
2023-05-10T03:18:21.590Z,13.8704
2023-05-10T03:19:22.622Z,13.8037
2023-05-10T03:20:23.584Z,13.8522
2023-05-10T03:21:24.614Z,13.8745
2023-05-10T03:22:25.602Z,13.7670
2023-05-10T03:23:26.629Z,13.5548
2023-05-10T03:24:27.716Z,13.6415
2023-05-10T03:25:28.744Z,13.7152
2023-05-10T03:26:29.721Z,13.7247
2023-05-10T03:27:30.747Z,13.5585
2023-05-10T03:28:31.816Z,13.5292
2023-05-10T03:29:32.857Z,13.5245
2023-05-10T03:30:33.969Z,13.3665
2023-05-10T03:31:34.959Z,13.3069
2023-05-10T03:32:35.965Z,13.3950
2023-05-10T03:33:36.983Z,13.6484
2023-05-10T03:34:38.020Z,13.6310
2023-05-10T03:35:39.095Z,13.3171
2023-05-10T03:36:40.123Z,13.2695
2023-05-10T03:37:41.084Z,13.4171
2023-05-10T03:38:42.096Z,13.6459
2023-05-10T03:39:43.198Z,13.8332
2023-05-10T03:40:44.232Z,13.9771
2023-05-10T03:41:45.190Z,14.0326
2023-05-10T03:42:46.298Z,13.8253
2023-05-10T03:43:47.241Z,13.7741
2023-05-10T03:44:48.376Z,13.7348
2023-05-10T03:45:49.341Z,13.7178
2023-05-10T03:46:50.419Z,13.5744
2023-05-10T03:47:51.414Z,13.3992
2023-05-10T03:48:52.399Z,13.4743
2023-05-10T03:49:53.511Z,13.5794
2023-05-10T03:50:54.530Z,13.7487
2023-05-10T03:51:55.515Z,13.8445
2023-05-10T03:52:56.537Z,13.8736
2023-05-10T03:53:57.557Z,13.7231
2023-05-10T03:54:58.628Z,13.5073
2023-05-10T03:55:59.655Z,13.4116
2023-05-10T03:57:00.654Z,13.4999
2023-05-10T03:58:01.708Z,13.7585
2023-05-10T03:59:02.759Z,14.0255
2023-05-10T04:00:03.803Z,14.0342
2023-05-10T04:01:04.816Z,13.8285
2023-05-10T04:02:05.900Z,13.7961
2023-05-10T04:03:06.942Z,13.8638
2023-05-10T04:04:07.907Z,13.8167
2023-05-10T04:05:08.980Z,13.8296
2023-05-10T04:06:09.994Z,13.9642
2023-05-10T04:07:10.958Z,13.9430
2023-05-10T04:08:11.998Z,13.7491
2023-05-10T04:09:13.088Z,13.7247
2023-05-10T04:10:14.372Z,13.6828
2023-05-10T04:11:15.212Z,13.8146
2023-05-10T04:12:16.133Z,13.6634
2023-05-10T04:13:17.177Z,13.6138
2023-05-10T04:14:18.194Z,13.4756
2023-05-10T04:15:19.280Z,13.3115
2023-05-10T04:16:20.309Z,13.3050
2023-05-10T04:17:21.354Z,13.5318
2023-05-10T04:18:22.297Z,13.6874
2023-05-10T04:19:23.420Z,13.7513
2023-05-10T04:20:24.481Z,13.9289
2023-05-10T04:21:25.541Z,13.7989
2023-05-10T04:22:26.509Z,13.5131
2023-05-10T04:23:27.459Z,13.4784
2023-05-10T04:24:28.510Z,13.4623
2023-05-10T04:25:29.536Z,13.5911
2023-05-10T04:26:30.647Z,13.6058
2023-05-10T04:27:31.637Z,13.6094
2023-05-10T04:28:32.666Z,13.4089
2023-05-10T04:29:33.689Z,13.1652
2023-05-10T04:30:34.778Z,13.0709
2023-05-10T04:31:35.842Z,13.0549
2023-05-10T04:32:36.919Z,13.0963
2023-05-10T04:33:37.795Z,13.1614
2023-05-10T04:34:38.845Z,13.2463
2023-05-10T04:35:39.890Z,13.3582
2023-05-10T04:36:40.944Z,13.5329
2023-05-10T04:37:42.021Z,13.7700
2023-05-10T04:38:42.936Z,13.8341
2023-05-10T04:39:43.996Z,13.6104
2023-05-10T04:40:45.021Z,13.5566
2023-05-10T04:41:46.167Z,13.3487
2023-05-10T04:42:47.184Z,13.2530
2023-05-10T04:43:48.189Z,13.3646
2023-05-10T04:44:49.223Z,13.3601
2023-05-10T04:45:50.201Z,13.4672
2023-05-10T04:46:51.292Z,13.5949
2023-05-10T04:47:52.303Z,13.7102
2023-05-10T04:48:53.257Z,13.6828
2023-05-10T04:49:54.369Z,13.5148
2023-05-10T04:50:55.398Z,13.3210
2023-05-10T04:51:56.500Z,13.1329
2023-05-10T04:52:57.416Z,13.2383
2023-05-10T04:54:06.123Z,13.3107
2023-05-10T04:54:59.612Z,13.2120
2023-05-10T04:56:00.515Z,13.0844
2023-05-10T04:57:01.593Z,13.3212
2023-05-10T04:58:02.648Z,13.5362
2023-05-10T04:59:03.635Z,13.5769
2023-05-10T05:00:04.644Z,13.5074
2023-05-10T05:01:05.679Z,13.4011
2023-05-10T05:02:06.831Z,13.3063
2023-05-10T05:03:07.943Z,13.3620
2023-05-10T05:04:08.782Z,13.5415
2023-05-10T05:05:09.794Z,13.6227
2023-05-10T05:06:10.911Z,13.3878
2023-05-10T05:07:11.915Z,13.1685
2023-05-10T05:08:12.968Z,13.0441
2023-05-10T05:09:13.980Z,13.0542
2023-05-10T05:10:15.086Z,13.1811
2023-05-10T05:11:15.998Z,13.2542
2023-05-10T05:12:17.094Z,13.1157
2023-05-10T05:13:18.194Z,12.9771
2023-05-10T05:14:19.095Z,12.9080
2023-05-10T05:15:20.166Z,12.9225
2023-05-10T05:16:21.355Z,13.0528
2023-05-10T05:17:22.357Z,13.1062
2023-05-10T05:18:23.300Z,13.0152
2023-05-10T05:19:24.275Z,12.9771
2023-05-10T05:20:25.391Z,12.9580
2023-05-10T05:21:26.445Z,12.8954
2023-05-10T05:22:27.505Z,12.9351
2023-05-10T05:23:28.567Z,13.0902
2023-05-10T05:24:29.563Z,13.1972
2023-05-10T05:25:30.565Z,13.2663
2023-05-10T05:26:31.580Z,13.2162
2023-05-10T05:27:32.687Z,13.1398
2023-05-10T05:28:33.695Z,13.1526
2023-05-10T05:29:34.745Z,13.3142
2023-05-10T05:30:35.679Z,13.4078
2023-05-10T05:31:36.833Z,13.5738
2023-05-10T05:32:37.931Z,13.6022
2023-05-10T05:33:38.865Z,13.6538
2023-05-10T05:34:39.896Z,13.6370
2023-05-10T05:35:40.914Z,13.6692
2023-05-10T05:36:41.960Z,13.7354
2023-05-10T05:37:43.021Z,13.7939
2023-05-10T05:38:44.027Z,13.7971
2023-05-10T05:39:45.049Z,13.9308
2023-05-10T05:40:46.032Z,14.0851
2023-05-10T05:41:47.143Z,14.1304
2023-05-10T05:42:48.123Z,14.2445
2023-05-10T05:43:49.191Z,14.1135
2023-05-10T05:44:50.136Z,14.0236
2023-05-10T05:45:51.283Z,13.9643
2023-05-10T05:46:52.319Z,13.8518
2023-05-10T05:47:53.404Z,13.8990
2023-05-10T05:48:54.294Z,13.6889
2023-05-10T05:49:55.326Z,13.5792
2023-05-10T05:50:56.346Z,13.6425
2023-05-10T05:51:57.411Z,13.5104
2023-05-10T05:52:58.410Z,13.4253
2023-05-10T05:53:59.540Z,13.4394
2023-05-10T05:55:00.558Z,13.3526
2023-05-10T05:56:01.504Z,13.2450
2023-05-10T05:57:02.581Z,13.2501
2023-05-10T05:58:03.579Z,13.2122
2023-05-10T05:59:04.557Z,13.3304
2023-05-10T06:00:05.704Z,13.4666
2023-05-10T06:01:06.659Z,13.5443
2023-05-10T06:02:07.751Z,13.4765
2023-05-10T06:03:08.838Z,13.4551
2023-05-10T06:04:09.792Z,13.5954
2023-05-10T06:05:10.845Z,13.5622
2023-05-10T06:06:11.835Z,13.3826
2023-05-10T06:07:12.893Z,13.1876
2023-05-10T06:08:13.906Z,13.0671
2023-05-10T06:09:14.874Z,13.0887
2023-05-10T06:10:15.955Z,13.1677
2023-05-10T06:11:17.045Z,13.1661
2023-05-10T06:12:18.049Z,13.1956
2023-05-10T06:13:19.093Z,13.0704
2023-05-10T06:14:20.036Z,12.9931
2023-05-10T06:15:21.151Z,13.0450
2023-05-10T06:16:22.154Z,13.0808
2023-05-10T06:17:23.173Z,13.0608
2023-05-10T06:18:24.197Z,13.1378
2023-05-10T06:19:25.259Z,13.1024
2023-05-10T06:20:26.272Z,13.0957
2023-05-10T06:21:27.272Z,13.3268
2023-05-10T06:22:28.418Z,13.5196
2023-05-10T06:23:29.335Z,13.3792
2023-05-10T06:24:30.436Z,13.1099
2023-05-10T06:25:31.388Z,13.0651
2023-05-10T06:26:32.482Z,13.0111
2023-05-10T06:27:33.541Z,13.0259
2023-05-10T06:28:34.545Z,13.1301
2023-05-10T06:29:35.568Z,13.2757
2023-05-10T06:30:36.611Z,13.3661
2023-05-10T06:31:37.658Z,13.3883
2023-05-10T06:32:38.705Z,13.3949
2023-05-10T06:33:39.726Z,13.3131
2023-05-10T06:34:40.734Z,13.0523
2023-05-10T06:35:41.800Z,13.0534
2023-05-10T06:36:42.755Z,13.1697
2023-05-10T06:37:43.835Z,13.3197
2023-05-10T06:38:44.910Z,13.3129
2023-05-10T06:39:45.924Z,13.3563
2023-05-10T06:40:46.899Z,13.2674
2023-05-10T06:41:47.988Z,12.9861
2023-05-10T06:42:49.005Z,13.0051
2023-05-10T06:43:50.077Z,12.9043
2023-05-10T06:44:51.059Z,12.7227
2023-05-10T06:45:52.159Z,12.6206
2023-05-10T06:46:53.137Z,12.7060
2023-05-10T06:47:54.210Z,12.6623
2023-05-10T06:48:55.204Z,12.5021
2023-05-10T06:49:56.283Z,12.3052
2023-05-10T06:50:57.251Z,12.3048
2023-05-10T06:51:58.325Z,12.2944
2023-05-10T06:52:59.325Z,12.4339
2023-05-10T06:54:00.454Z,12.4591
2023-05-10T06:55:01.440Z,12.5628
2023-05-10T06:56:02.441Z,12.7151
2023-05-10T06:57:04.151Z,12.7948
2023-05-10T06:58:04.585Z,12.7508
2023-05-10T06:59:05.642Z,12.6790
2023-05-10T07:00:06.662Z,12.5959
2023-05-10T07:01:07.818Z,12.7356
2023-05-10T07:02:08.670Z,12.7616
2023-05-10T07:03:09.708Z,12.7317
2023-05-10T07:04:10.746Z,12.5316
2023-05-10T07:05:11.796Z,12.5064
2023-05-10T07:06:21.702Z,12.4849
2023-05-10T07:07:13.844Z,12.5379
2023-05-10T07:08:14.866Z,12.5448
2023-05-10T07:09:15.952Z,12.5214
2023-05-10T07:10:16.956Z,12.5194
2023-05-10T07:11:18.019Z,12.4626
2023-05-10T07:12:19.080Z,12.4161
2023-05-10T07:13:20.131Z,12.4323
2023-05-10T07:14:21.012Z,12.4563
2023-05-10T07:15:22.176Z,12.4817
2023-05-10T07:16:23.293Z,12.5437
2023-05-10T07:17:24.314Z,12.6494
2023-05-10T07:18:25.210Z,12.8306
2023-05-10T07:19:26.322Z,12.9278
2023-05-10T07:20:27.293Z,12.9642
2023-05-10T07:21:28.350Z,13.0421
2023-05-10T07:22:29.293Z,12.8891
2023-05-10T07:23:30.375Z,12.9688
2023-05-10T07:24:31.381Z,12.8863
2023-05-10T07:25:32.452Z,12.8310
2023-05-10T07:26:33.556Z,12.8667
2023-05-10T07:27:34.521Z,12.8952
2023-05-10T07:28:35.620Z,13.0897
2023-05-10T07:29:36.623Z,13.0800
2023-05-10T07:30:37.702Z,13.0908
2023-05-10T07:31:38.775Z,13.1098
2023-05-10T07:32:39.757Z,13.0535
2023-05-10T07:33:40.736Z,12.9970
2023-05-10T07:34:41.733Z,13.0744
2023-05-10T07:35:42.841Z,13.1020
2023-05-10T07:36:43.889Z,12.9898
2023-05-10T07:37:44.879Z,12.8953
2023-05-10T07:38:45.855Z,12.8807
2023-05-10T07:39:46.939Z,12.9966
2023-05-10T07:40:47.999Z,13.2413
2023-05-10T07:41:49.048Z,13.4186
2023-05-10T07:42:50.003Z,13.5535
2023-05-10T07:43:51.078Z,13.3981
2023-05-10T07:44:52.107Z,13.3985
2023-05-10T07:45:56.030Z,13.3978
2023-05-10T07:46:54.249Z,13.1437
2023-05-10T07:47:55.304Z,13.0552
2023-05-10T07:48:56.367Z,13.0459
2023-05-10T07:49:57.276Z,12.9996
2023-05-10T07:50:58.351Z,13.1097
2023-05-10T07:51:59.398Z,13.4114
2023-05-10T07:53:00.366Z,13.5005
2023-05-10T07:54:01.418Z,13.5068
2023-05-10T07:55:02.479Z,13.4063
2023-05-10T07:56:03.595Z,13.3046
2023-05-10T07:57:04.553Z,13.3000
2023-05-10T07:58:05.634Z,13.2198
2023-05-10T07:59:06.601Z,13.1911
2023-05-10T08:00:07.660Z,13.2400
2023-05-10T08:01:08.716Z,13.1811
2023-05-10T08:02:09.753Z,13.0605
2023-05-10T08:03:10.955Z,13.2901
2023-05-10T08:04:11.757Z,13.4311
2023-05-10T08:05:12.770Z,13.7270
2023-05-10T08:06:13.860Z,13.7184
2023-05-10T08:07:14.936Z,13.7514
2023-05-10T08:08:15.976Z,13.5665
2023-05-10T08:09:16.961Z,13.5374
2023-05-10T08:10:17.966Z,13.4698
2023-05-10T08:11:19.060Z,13.3988
2023-05-10T08:12:20.076Z,13.4667
2023-05-10T08:13:21.125Z,13.4899
2023-05-10T08:14:22.119Z,13.3635
2023-05-10T08:15:23.134Z,13.3459
2023-05-10T08:16:24.332Z,13.4565
2023-05-10T08:17:25.314Z,13.2643
2023-05-10T08:18:26.347Z,13.2070
2023-05-10T08:19:27.250Z,13.2607
2023-05-10T08:20:28.367Z,13.2234
2023-05-10T08:21:29.415Z,13.2563
2023-05-10T08:22:30.479Z,13.2572
2023-05-10T08:23:31.417Z,13.2803
2023-05-10T08:24:32.476Z,13.4026
2023-05-10T08:25:33.519Z,13.5330
2023-05-10T08:26:34.658Z,13.6325
2023-05-10T08:27:35.564Z,13.5408
2023-05-10T08:28:36.596Z,13.5815
2023-05-10T08:29:48.878Z,13.7923
2023-05-10T08:30:38.644Z,13.9232
2023-05-10T08:31:39.853Z,13.7074
2023-05-10T08:32:40.820Z,13.3815
2023-05-10T08:33:43.067Z,13.2608
2023-05-10T08:34:42.822Z,13.1868
2023-05-10T08:35:43.820Z,13.4138
2023-05-10T08:36:44.907Z,13.6306
2023-05-10T08:37:45.955Z,13.7814
2023-05-10T08:38:46.956Z,13.8795
2023-05-10T08:39:47.965Z,13.8427
2023-05-10T08:40:49.080Z,13.8497
2023-05-10T08:41:50.067Z,13.7015
2023-05-10T08:42:51.152Z,13.5211
2023-05-10T08:43:52.101Z,13.3812
2023-05-10T08:44:53.159Z,13.3758
2023-05-10T08:45:54.170Z,13.3955
2023-05-10T08:46:55.446Z,13.4858
2023-05-10T08:47:56.351Z,13.3887
2023-05-10T08:48:57.323Z,13.2939
2023-05-10T08:49:58.307Z,13.3667
2023-05-10T08:50:59.367Z,13.5608
2023-05-10T08:52:00.429Z,13.5009
2023-05-10T08:53:01.479Z,13.5333
2023-05-10T08:54:02.497Z,13.7320
2023-05-10T08:55:03.479Z,13.7313
2023-05-10T08:56:04.523Z,13.5353
2023-05-10T08:57:05.677Z,13.4240
2023-05-10T08:58:06.650Z,13.4293
2023-05-10T08:59:07.611Z,13.4709
2023-05-10T09:00:08.677Z,13.7090
2023-05-10T09:01:09.814Z,14.0852
2023-05-10T09:02:10.778Z,13.9877
2023-05-10T09:03:11.791Z,13.7720
2023-05-10T09:04:12.849Z,13.6464
2023-05-10T09:05:13.915Z,13.7668
2023-05-10T09:06:14.825Z,13.7283
2023-05-10T09:07:15.994Z,13.7320
2023-05-10T09:08:16.998Z,13.5786
2023-05-10T09:09:17.935Z,13.5396
2023-05-10T09:10:19.045Z,13.4620
2023-05-10T09:11:20.041Z,13.3825
2023-05-10T09:12:21.056Z,13.5711
2023-05-10T09:13:22.135Z,13.7427
2023-05-10T09:14:23.143Z,13.7798
2023-05-10T09:15:24.215Z,13.8605
2023-05-10T09:16:25.193Z,13.9213
2023-05-10T09:17:26.481Z,13.9599
2023-05-10T09:18:28.113Z,13.6164
2023-05-10T09:19:28.354Z,13.3096
2023-05-10T09:20:29.527Z,13.3250
2023-05-10T09:21:30.453Z,13.3304
2023-05-10T09:22:31.499Z,13.2180
2023-05-10T09:23:32.532Z,13.1127
2023-05-10T09:24:33.546Z,13.0749
2023-05-10T09:25:34.559Z,13.1509
2023-05-10T09:26:35.601Z,13.2398
2023-05-10T09:27:36.726Z,13.3144
2023-05-10T09:28:37.710Z,13.3615
2023-05-10T09:29:38.794Z,13.4104
2023-05-10T09:30:39.760Z,13.4404
2023-05-10T09:31:40.766Z,13.4976
2023-05-10T09:32:41.906Z,13.4558
2023-05-10T09:33:42.870Z,13.3064
2023-05-10T09:34:43.869Z,13.3377
2023-05-10T09:35:44.925Z,13.5519
2023-05-10T09:36:45.915Z,13.7469
2023-05-10T09:37:46.997Z,13.8743
2023-05-10T09:38:48.127Z,14.2480
2023-05-10T09:39:49.098Z,14.2425
2023-05-10T09:40:50.067Z,14.0200
2023-05-10T09:41:51.133Z,13.6345
2023-05-10T09:42:52.222Z,13.5431
2023-05-10T09:43:53.241Z,13.5132
2023-05-10T09:44:54.252Z,13.3464
2023-05-10T09:45:55.253Z,13.3572
2023-05-10T09:46:56.353Z,13.4725
2023-05-10T09:47:57.449Z,13.4970
2023-05-10T09:48:58.466Z,13.5080
2023-05-10T09:49:59.389Z,13.5092
2023-05-10T09:51:00.446Z,13.4302
2023-05-10T09:52:01.469Z,13.6541
2023-05-10T09:53:02.513Z,13.8175
2023-05-10T09:54:03.561Z,13.7665
2023-05-10T09:55:04.551Z,13.7480
2023-05-10T09:56:05.621Z,13.7265
2023-05-10T09:57:06.580Z,13.6874
2023-05-10T09:58:07.778Z,13.9231
2023-05-10T09:59:08.692Z,13.7766
2023-05-10T10:00:09.757Z,13.4898
2023-05-10T10:01:10.783Z,13.3755
2023-05-10T10:02:11.738Z,13.3484
2023-05-10T10:03:12.894Z,13.2733
2023-05-10T10:04:13.934Z,13.3787
2023-05-10T10:05:15.125Z,13.5606
2023-05-10T10:06:29.120Z,13.6410
2023-05-10T10:07:16.923Z,13.5244
2023-05-10T10:08:18.048Z,13.4740
2023-05-10T10:09:19.002Z,13.3124
2023-05-10T10:10:20.093Z,13.4100
2023-05-10T10:11:21.072Z,13.6065
2023-05-10T10:12:22.083Z,13.8261
2023-05-10T10:13:23.175Z,13.7187
2023-05-10T10:14:24.213Z,13.5947
2023-05-10T10:15:25.222Z,13.5479
2023-05-10T10:16:26.296Z,13.4183
2023-05-10T10:17:27.404Z,13.4691
2023-05-10T10:18:28.450Z,13.6811
2023-05-10T10:19:29.376Z,13.5308
2023-05-10T10:20:30.297Z,13.6113
2023-05-10T10:21:31.382Z,13.8286
2023-05-10T10:22:32.470Z,13.9200
2023-05-10T10:23:33.505Z,13.9253
2023-05-10T10:24:34.504Z,13.8837
2023-05-10T10:25:35.465Z,13.5929
2023-05-10T10:26:36.593Z,13.3813
2023-05-10T10:27:37.536Z,13.2884
2023-05-10T10:28:38.649Z,13.3275
2023-05-10T10:29:39.655Z,13.4110
2023-05-10T10:30:40.679Z,13.5263
2023-05-10T10:31:41.737Z,13.7053
2023-05-10T10:32:42.834Z,13.7495
2023-05-10T10:33:44.859Z,13.8749
2023-05-10T10:34:44.851Z,14.0286
2023-05-10T10:35:45.884Z,14.1385
2023-05-10T10:36:46.898Z,14.2643
2023-05-10T10:37:47.970Z,14.0104
2023-05-10T10:38:49.044Z,13.9251
2023-05-10T10:39:49.974Z,13.9287
2023-05-10T10:40:51.001Z,13.9335
2023-05-10T10:41:52.072Z,14.0905
2023-05-10T10:42:53.164Z,14.3086
2023-05-10T10:43:54.138Z,14.3165
2023-05-10T10:44:55.223Z,14.2102
2023-05-10T10:45:56.198Z,14.4484
2023-05-10T10:46:57.207Z,14.3958
2023-05-10T10:47:58.222Z,14.5247
2023-05-10T10:48:59.319Z,14.6241
2023-05-10T10:50:00.380Z,14.7590
2023-05-10T10:51:01.318Z,15.0010
2023-05-10T10:52:02.360Z,15.2387
2023-05-10T10:53:03.431Z,15.2272
2023-05-10T10:54:04.512Z,15.2450
2023-05-10T10:55:05.559Z,15.1023
2023-05-10T10:56:06.497Z,14.9080
2023-05-10T10:57:07.614Z,14.8109
2023-05-10T10:58:08.551Z,14.6649
2023-05-10T10:59:09.661Z,14.8488
2023-05-10T11:00:10.669Z,15.0177
2023-05-10T11:01:11.798Z,15.1008
2023-05-10T11:02:12.674Z,15.4313
2023-05-10T11:03:13.857Z,15.5225
2023-05-10T11:04:14.868Z,15.2053
2023-05-10T11:05:16.106Z,15.1132
2023-05-10T11:06:16.884Z,14.9604
2023-05-10T11:07:17.889Z,14.8225
2023-05-10T11:08:18.929Z,14.7589
2023-05-10T11:09:20.006Z,14.8076
2023-05-10T11:10:21.029Z,14.9146
2023-05-10T11:11:21.995Z,14.9415
2023-05-10T11:12:23.053Z,14.9425
2023-05-10T11:13:24.072Z,14.9662
2023-05-10T11:14:25.156Z,15.0153
2023-05-10T11:15:26.196Z,14.8183
2023-05-10T11:16:27.259Z,14.5243
2023-05-10T11:17:28.228Z,14.4280
2023-05-10T11:18:29.305Z,14.3780
2023-05-10T11:19:30.212Z,14.4086
2023-05-10T11:20:31.275Z,14.4627
2023-05-10T11:21:32.412Z,14.4899
2023-05-10T11:22:33.279Z,14.7035
2023-05-10T11:23:34.311Z,14.5900
2023-05-10T11:24:35.402Z,14.7550
2023-05-10T11:25:36.387Z,14.4978
2023-05-10T11:26:37.419Z,14.3458
2023-05-10T11:27:38.685Z,14.4598
2023-05-10T11:28:39.479Z,14.6207
2023-05-10T11:29:40.563Z,14.8423
2023-05-10T11:30:41.671Z,14.6653
2023-05-10T11:31:42.561Z,14.6216
2023-05-10T11:32:43.647Z,14.8095
2023-05-10T11:33:44.624Z,14.8141
2023-05-10T11:34:45.711Z,14.7626
2023-05-10T11:35:46.723Z,14.9206
2023-05-10T11:36:47.778Z,15.0866
2023-05-10T11:37:48.817Z,15.1934
2023-05-10T11:38:49.884Z,15.2653
2023-05-10T11:39:50.860Z,15.4907
2023-05-10T11:40:51.920Z,15.5165
2023-05-10T11:41:52.929Z,15.5912
2023-05-10T11:42:53.932Z,15.4857
2023-05-10T11:43:54.984Z,15.2605
2023-05-10T11:44:56.055Z,15.1309
2023-05-10T11:45:57.038Z,15.3387
2023-05-10T11:46:58.139Z,15.3000
2023-05-10T11:47:59.139Z,15.3025
2023-05-10T11:49:00.120Z,15.1463
2023-05-10T11:50:01.173Z,15.0025
2023-05-10T11:51:02.209Z,14.8652
2023-05-10T11:52:03.290Z,14.8180
2023-05-10T11:53:04.286Z,14.7653
2023-05-10T11:54:05.561Z,14.8556
2023-05-10T11:55:06.362Z,14.6582
2023-05-10T11:56:07.397Z,14.4925
2023-05-10T11:57:08.426Z,14.5600
2023-05-10T11:58:09.413Z,14.5519
2023-05-10T11:59:10.469Z,14.4723
2023-05-10T12:00:11.522Z,14.4365
2023-05-10T12:01:12.593Z,14.4956
2023-05-10T12:02:13.587Z,14.5000
2023-05-10T12:03:14.728Z,14.6446
2023-05-10T12:04:15.759Z,14.7874
2023-05-10T12:05:16.687Z,14.9342
2023-05-10T12:06:17.749Z,14.7440
2023-05-10T12:07:18.821Z,14.5298
2023-05-10T12:08:19.789Z,14.4921
2023-05-10T12:09:31.478Z,14.6833
2023-05-10T12:10:21.846Z,14.7856
2023-05-10T12:11:22.940Z,14.9619
2023-05-10T12:12:23.955Z,15.0667
2023-05-10T12:13:24.968Z,14.9986
2023-05-10T12:14:26.003Z,14.8978
2023-05-10T12:15:27.032Z,15.0612
2023-05-10T12:16:28.153Z,15.2094
2023-05-10T12:17:29.145Z,15.2769